RA5608G UWKE-UATE
Flight info
| Callsign | RA5608G |
|---|---|
| Flight time | N/A |
| Altitude | 26000 |
| Route | DOGUR M161 MOF/K0519F250 M161 LEDGI M158 OLAPU W324 ATR/K0517F260 W324 NIKNA N60 PIRIM PIRIM1J |
| Aircraft | SF50/L-BDGRSWY/LB2U2 |
Departure
| Time | 2026-04-27 12:27 |
|---|---|
| Airport | Begishevo Airport (UWKE) |
Arrival
| Time | N/A |
|---|---|
| Airport | Aktau International Airport (UATE) |
| Time | Latitude | Longitude | Altitude | Speed | Heading |
|---|---|---|---|---|---|
| 2026-04-27 11:56 | 55.56530 | 52.10056 | 0 ft | 0 kts | 137° |
| 2026-04-27 12:24 | 55.56514 | 52.10118 | 646 ft | 11 kts | 77° |
| 2026-04-27 12:25 | 55.56578 | 52.10123 | 646 ft | 10 kts | 315° |
| 2026-04-27 12:25 | 55.56645 | 52.10086 | 646 ft | 11 kts | 355° |
| 2026-04-27 12:25 | 55.56702 | 52.10012 | 646 ft | 10 kts | 315° |
| 2026-04-27 12:25 | 55.56751 | 52.09930 | 647 ft | 9 kts | 318° |
| 2026-04-27 12:26 | 55.56774 | 52.09841 | 648 ft | 9 kts | 235° |
| 2026-04-27 12:26 | 55.56663 | 52.09630 | 647 ft | 50 kts | 227° |
| 2026-04-27 12:26 | 55.56310 | 52.08963 | 694 ft | 93 kts | 220° |
| 2026-04-27 12:26 | 55.55866 | 52.08122 | 1105 ft | 90 kts | 214° |
| 2026-04-27 12:27 | 55.55407 | 52.07520 | 1621 ft | 78 kts | 200° |
| 2026-04-27 12:27 | 55.54948 | 52.06768 | 1703 ft | 107 kts | 219° |
| 2026-04-27 12:27 | 55.54468 | 52.05665 | 1759 ft | 120 kts | 218° |
| 2026-04-27 12:27 | 55.53836 | 52.04375 | 1800 ft | 153 kts | 218° |
| 2026-04-27 12:28 | 55.53061 | 52.02871 | 1872 ft | 178 kts | 218° |
| 2026-04-27 12:28 | 55.52192 | 52.01191 | 2202 ft | 184 kts | 218° |
| 2026-04-27 12:28 | 55.51345 | 51.99546 | 2748 ft | 180 kts | 217° |
| 2026-04-27 12:28 | 55.50427 | 51.98135 | 3280 ft | 170 kts | 202° |
| 2026-04-27 12:29 | 55.49380 | 51.97464 | 3970 ft | 156 kts | 188° |
| 2026-04-27 12:29 | 55.48279 | 51.97396 | 4396 ft | 162 kts | 172° |